Airfield :
LOGIN :

Register | Disclaimer

   EN    FR    IT 

 










Legend :    VFR   Marginal VFR   IFR   Intensive IFR   Very Intensive IFR
Visi :
Ceiling :
>= 8 km
>= 3000ft
5 to 8 km
1000 to 3000 ft
1500m to 5 km
500 to 1000 ft
800 to 1500m
200 to 500 ft
< 800m
< 200 ft
Symbols :   Thunderstorms  Fog  Heavy snow  Heavy precipitations  Wind > 20 kt
SIGMETs :     Misc.  Thunderstorms  Icing  Turbulence  Mountain Waves  Volcanic Ashes






- Airport Elevation : 174 ft
- IATA code : RYG


ENRY - Moss , Rygge

CURRENT METAR :
  • 041250Z 20010KT 9999 BKN009 13/11 Q1011 TEMPO BKN012

EXPIRED METARs :
  • 041220Z 19010KT 160V230 9999 BKN009 14/11 Q1012 NOSIG
  • 041150Z 19008KT 9999 BKN008 13/11 Q1012 NOSIG
  • 041120Z 19010KT 9999 SCT009 BKN038 13/10 Q1012 TEMPO BKN012
  • 041050Z 20009KT 9999 -DZ FEW034 SCT086 12/09 Q1013 NOSIG
  • 041020Z 19008KT 9999 FEW034 11/08 Q1013 NOSIG

TAF TAF ENRY
Valid from the 04 at 12:00 until the 05 at 12:00 UTC


0412/0512 20010KT 9999 FEW005 BKN015
BECMG 0412/0414 BKN008
TEMPO 0414/0503 20018G28KT
PROB40 0418/0512 2000 RADZ BR OVC002
TEMPO 0508/0512 22020G35KT



MET'MAP, your aeronautical weather chart ! - Copyright ORBIFLY December 2007 - Disclaimer

ORBIFLY MET'MAP TEAM :

Programming & Development : Alexandra Zaïnal
Original concept : Baudouin d'Aumeries
Technical & hardware support : Manuel Goepfert
Assistance : Marc-Olivier Méhu




SOURCES & CREDITS :

   NOAA